Time;durP1;ratioP1;P1;durP2;ratioP2;P2;SDS_P1;SDS_P2;PMS_P1;PMS_P2;Temp;Humidity;BMP_temperature;BMP_pressure;BME280_temperature;BME280_humidity;BME280_pressure;Samples;Min_cycle;Max_cycle;Signal;HPM_P1;HPM_P2
2021/08/16 00:00:50;;;;;;;;;4.50;4.25;;;;;27.23;44.27;101094.84;5034428;28;51006;-62
2021/08/16 00:03:16;;;;;;;;;3.00;2.50;;;;;27.23;43.85;101091.22;5034417;28;56112;-61
2021/08/16 00:05:42;;;;;;;;;5.00;3.25;;;;;27.23;44.04;101094.00;5034902;28;51179;-62
2021/08/16 00:08:09;;;;;;;;;3.25;3.25;;;;;27.23;43.92;101092.06;5035012;28;50970;-62
2021/08/16 00:10:34;;;;;;;;;4.25;4.25;;;;;27.23;43.98;101096.78;5036799;28;51908;-62
2021/08/16 00:13:00;;;;;;;;;3.50;2.75;;;;;27.22;43.87;101089.56;5037829;28;51025;-62
2021/08/16 00:15:25;;;;;;;;;4.00;3.00;;;;;27.21;43.71;101093.44;5038321;28;51111;-61
2021/08/16 00:17:51;;;;;;;;;3.50;3.00;;;;;27.20;43.73;101095.38;5038154;28;51129;-61
2021/08/16 00:20:16;;;;;;;;;5.25;5.25;;;;;27.21;43.74;101085.09;5037995;28;51052;-62
2021/08/16 00:22:42;;;;;;;;;2.00;2.00;;;;;27.21;44.20;101082.31;5038181;28;50943;-62
2021/08/16 00:25:08;;;;;;;;;3.00;3.00;;;;;27.20;44.06;101089.81;5037966;28;51091;-62
2021/08/16 00:27:34;;;;;;;;;1.25;1.25;;;;;27.20;44.28;101083.38;5038108;28;51151;-62
2021/08/16 00:30:01;;;;;;;;;2.00;1.25;;;;;27.20;43.80;101086.16;5037972;28;51020;-63
2021/08/16 00:32:26;;;;;;;;;3.25;2.75;;;;;27.20;44.08;101083.38;5037826;28;51058;-62
2021/08/16 00:34:52;;;;;;;;;1.25;1.25;;;;;27.17;43.80;101075.56;5037985;28;51138;-63
2021/08/16 00:37:17;;;;;;;;;4.75;3.25;;;;;27.17;44.29;101081.97;5037979;28;51179;-63
2021/08/16 00:39:42;;;;;;;;;2.25;2.25;;;;;27.17;43.92;101089.47;5037530;28;51105;-62
2021/08/16 00:42:10;;;;;;;;;2.50;2.00;;;;;27.18;44.17;101091.16;5035958;28;50943;-63
2021/08/16 00:44:36;;;;;;;;;2.00;2.00;;;;;27.17;43.83;101083.91;5037959;28;51196;-63
2021/08/16 00:47:02;;;;;;;;;2.50;2.50;;;;;27.17;44.05;101078.34;5037920;28;51066;-62
2021/08/16 00:49:27;;;;;;;;;2.00;2.00;;;;;27.17;43.73;101072.78;5037282;28;51221;-62
2021/08/16 00:51:53;;;;;;;;;3.75;3.00;;;;;27.15;43.83;101075.84;5037719;28;51141;-63
2021/08/16 00:54:18;;;;;;;;;3.25;2.00;;;;;27.16;44.13;101071.13;5037522;28;51185;-62
2021/08/16 00:56:44;;;;;;;;;3.00;3.00;;;;;27.14;44.06;101074.16;5037720;28;51010;-62
2021/08/16 00:59:11;;;;;;;;;2.50;2.50;;;;;27.15;43.76;101066.66;5036874;28;51812;-62
2021/08/16 01:01:36;;;;;;;;;1.75;1.75;;;;;27.15;43.85;101075.84;5037415;28;51152;-62
2021/08/16 01:04:02;;;;;;;;;2.00;2.00;;;;;27.15;43.77;101069.44;5037372;28;51059;-62
2021/08/16 01:06:27;;;;;;;;;2.75;2.50;;;;;27.14;44.07;101064.97;5037467;28;50987;-62
2021/08/16 01:08:53;;;;;;;;;2.00;2.00;;;;;27.14;43.76;101064.97;5036947;28;52582;-62
2021/08/16 01:11:20;;;;;;;;;1.25;1.25;;;;;27.13;44.09;101061.38;5037232;28;50959;-62
2021/08/16 01:13:46;;;;;;;;;2.75;2.75;;;;;27.12;44.16;101059.69;5037313;28;51214;-63
2021/08/16 01:16:13;;;;;;;;;1.00;1.00;;;;;27.13;43.62;101063.31;5037528;28;51324;-62
2021/08/16 01:18:39;;;;;;;;;2.00;2.00;;;;;27.11;44.24;101060.78;5037159;28;51324;-62
2021/08/16 01:21:06;;;;;;;;;4.75;0.75;;;;;27.13;44.16;101071.66;5035911;28;51023;-62
2021/08/16 01:23:32;;;;;;;;;3.25;3.25;;;;;27.12;44.19;101068.03;5037361;28;51078;-62
2021/08/16 01:25:58;;;;;;;;;1.75;0.75;;;;;27.11;44.21;101063.56;5037477;28;51158;-62
2021/08/16 01:28:24;;;;;;;;;2.75;1.00;;;;;27.11;43.96;101062.75;5036651;28;51017;-62
2021/08/16 01:30:56;;;;;;;;;0.75;0.75;;;;;27.10;44.23;101070.25;5037011;28;51359;-62
2021/08/16 01:33:23;;;;;;;;;1.00;1.00;;;;;27.10;43.67;101066.63;5037062;28;51117;-62
2021/08/16 01:35:48;;;;;;;;;1.00;1.00;;;;;27.10;44.00;101067.47;5037024;28;50991;-62
2021/08/16 01:38:14;;;;;;;;;2.00;1.00;;;;;27.09;43.74;101068.53;5036803;28;51058;-61
2021/08/16 01:40:39;;;;;;;;;1.50;1.50;;;;;27.09;44.01;101064.91;5036902;28;51052;-62
2021/08/16 01:43:05;;;;;;;;;1.00;1.00;;;;;27.09;43.57;101073.25;5036642;28;51196;-61
2021/08/16 01:45:30;;;;;;;;;1.50;0.00;;;;;27.08;43.50;101074.34;5036830;28;51161;-61
2021/08/16 01:47:56;;;;;;;;;2.75;2.00;;;;;27.08;43.65;101077.97;5036672;28;50983;-61
2021/08/16 01:50:22;;;;;;;;;1.00;1.00;;;;;27.09;43.74;101073.25;5036877;28;51257;-61
2021/08/16 01:52:47;;;;;;;;;1.00;1.00;;;;;27.07;44.05;101070.75;5036762;28;51094;-61
2021/08/16 01:55:13;;;;;;;;;1.00;1.00;;;;;27.08;43.99;101069.63;5037073;28;50984;-61
2021/08/16 01:57:38;;;;;;;;;0.75;0.75;;;;;27.07;43.88;101067.13;5036177;28;51299;-61
2021/08/16 02:00:04;;;;;;;;;1.25;1.25;;;;;27.07;43.79;101076.31;5036648;28;51050;-61
2021/08/16 02:02:29;;;;;;;;;1.00;1.00;;;;;27.07;43.51;101069.91;5036470;28;51051;-62
2021/08/16 02:04:55;;;;;;;;;1.00;1.00;;;;;27.07;44.17;101069.91;5036664;28;52994;-62
2021/08/16 02:07:20;;;;;;;;;0.25;0.25;;;;;27.05;43.80;101061.81;5036288;28;52075;-61
2021/08/16 02:09:45;;;;;;;;;1.25;1.25;;;;;27.05;43.46;101070.16;5036224;28;51006;-61
2021/08/16 02:12:11;;;;;;;;;0.00;0.00;;;;;27.04;43.59;101076.84;5036638;28;51234;-61
2021/08/16 02:14:36;;;;;;;;;0.00;0.00;;;;;27.04;43.62;101069.34;5036637;28;51031;-61
2021/08/16 02:17:02;;;;;;;;;2.00;1.00;;;;;27.04;44.09;101077.66;5036369;28;50987;-61
2021/08/16 02:19:28;;;;;;;;;1.00;1.00;;;;;27.06;44.06;101071.00;5035964;28;50967;-61
2021/08/16 02:21:53;;;;;;;;;1.00;1.00;;;;;27.04;43.76;101068.50;5036057;28;51052;-61
2021/08/16 02:24:19;;;;;;;;;0.25;0.25;;;;;27.03;43.88;101067.66;5036102;28;51117;-61
2021/08/16 02:26:44;;;;;;;;;1.00;0.50;;;;;27.03;44.14;101070.44;5035854;28;52024;-62
2021/08/16 02:29:13;;;;;;;;;0.75;0.75;;;;;27.03;44.18;101072.38;5035921;28;51056;-61
2021/08/16 02:31:38;;;;;;;;;0.00;0.00;;;;;27.02;44.10;101074.31;5036269;28;51145;-61
2021/08/16 02:34:04;;;;;;;;;0.75;0.75;;;;;27.02;43.75;101070.69;5035785;28;51046;-61
2021/08/16 02:36:29;;;;;;;;;0.00;0.00;;;;;27.01;44.03;101064.28;5035809;28;52741;-61
2021/08/16 02:38:55;;;;;;;;;2.00;0.25;;;;;27.01;44.08;101069.84;5036129;28;51001;-61
2021/08/16 02:41:20;;;;;;;;;0.25;0.25;;;;;27.02;44.26;101071.53;5036102;28;51101;-61
2021/08/16 02:43:46;;;;;;;;;1.50;0.00;;;;;27.01;43.74;101061.50;5036018;28;51070;-61
2021/08/16 02:46:11;;;;;;;;;0.75;0.75;;;;;27.00;44.04;101059.81;5035956;28;51060;-61
2021/08/16 02:48:36;;;;;;;;;0.00;0.00;;;;;26.99;44.06;101060.91;5034548;28;51133;-61
2021/08/16 02:51:02;;;;;;;;;4.00;0.50;;;;;27.00;43.97;101062.59;5036264;28;51103;-61
2021/08/16 02:53:27;;;;;;;;;1.75;1.00;;;;;27.00;43.95;101061.75;5036228;28;51463;-61
2021/08/16 02:55:52;;;;;;;;;0.75;0.50;;;;;27.00;44.11;101062.59;5035775;28;51739;-62
2021/08/16 02:58:18;;;;;;;;;0.00;0.00;;;;;26.99;43.76;101060.03;5035655;28;51279;-62
2021/08/16 03:00:43;;;;;;;;;1.00;1.00;;;;;26.98;43.99;101062.00;5035962;28;51017;-61
2021/08/16 03:03:08;;;;;;;;;0.25;0.25;;;;;26.99;43.86;101063.69;5035709;28;51364;-61
2021/08/16 03:05:34;;;;;;;;;0.50;0.50;;;;;26.98;44.06;101064.78;5035546;28;50942;-61
2021/08/16 03:07:59;;;;;;;;;0.50;0.50;;;;;26.98;43.54;101070.31;5035769;28;50937;-62
2021/08/16 03:10:24;;;;;;;;;2.00;1.00;;;;;26.98;44.12;101070.31;5035906;28;50998;-61
2021/08/16 03:12:49;;;;;;;;;0.00;0.00;;;;;26.98;44.21;101066.72;5035735;28;50900;-61
2021/08/16 03:15:15;;;;;;;;;0.00;0.00;;;;;26.97;43.60;101074.22;5035564;28;51771;-61
2021/08/16 03:17:41;;;;;;;;;1.00;1.00;;;;;26.97;43.68;101065.88;5035583;28;51114;-61
2021/08/16 03:20:07;;;;;;;;;3.25;0.00;;;;;26.97;43.56;101074.22;5035395;28;50964;-61
2021/08/16 03:22:33;;;;;;;;;0.25;0.25;;;;;26.96;43.46;101066.13;5034443;28;51147;-61
2021/08/16 03:24:58;;;;;;;;;1.00;0.00;;;;;26.96;43.79;101058.63;5035269;28;51242;-61
2021/08/16 03:27:24;;;;;;;;;0.00;0.00;;;;;26.96;43.70;101072.53;5035016;28;51109;-62
2021/08/16 03:29:49;;;;;;;;;1.00;1.00;;;;;26.96;43.94;101066.13;5035549;28;51209;-62
2021/08/16 03:32:15;;;;;;;;;1.00;1.00;;;;;26.94;43.73;101066.41;5035765;28;51268;-63
2021/08/16 03:34:40;;;;;;;;;0.75;0.75;;;;;26.94;43.73;101066.41;5035046;28;51082;-62
2021/08/16 03:37:06;;;;;;;;;1.00;0.75;;;;;26.94;43.79;101066.41;5035209;28;51066;-61
2021/08/16 03:39:31;;;;;;;;;0.75;0.75;;;;;26.95;43.99;101061.69;5035525;28;51221;-62
2021/08/16 03:41:56;;;;;;;;;1.00;1.00;;;;;26.94;43.98;101065.56;5035587;28;51199;-62
2021/08/16 03:44:22;;;;;;;;;0.00;0.00;;;;;26.94;43.87;101069.19;5035676;28;52045;-62
2021/08/16 03:46:47;;;;;;;;;2.25;1.00;;;;;26.93;43.55;101059.16;5038837;28;51166;-61
2021/08/16 03:49:13;;;;;;;;;2.00;1.00;;;;;26.92;43.95;101065.84;5038644;28;51019;-62
2021/08/16 03:51:38;;;;;;;;;4.75;1.25;;;;;26.93;43.76;101067.50;5039017;28;51410;-62
2021/08/16 03:54:03;;;;;;;;;1.00;1.00;;;;;26.93;44.09;101066.66;5038489;28;51968;-61
2021/08/16 03:56:29;;;;;;;;;1.50;0.50;;;;;26.91;44.18;101057.75;5038596;28;51098;-62
2021/08/16 03:58:54;;;;;;;;;0.75;0.75;;;;;26.92;44.01;101063.06;5038241;28;51095;-62
2021/08/16 04:01:20;;;;;;;;;1.00;1.00;;;;;26.91;43.56;101064.16;5038717;28;51352;-62
2021/08/16 04:03:45;;;;;;;;;2.25;0.00;;;;;26.91;43.84;101064.16;5018368;28;51269;-61
2021/08/16 04:06:10;;;;;;;;;0.00;0.00;;;;;26.90;44.08;101062.47;5018693;28;51101;-62
2021/08/16 04:08:40;;;;;;;;;1.00;0.00;;;;;26.91;44.15;101068.88;5018525;28;50999;-62
2021/08/16 04:11:06;;;;;;;;;1.00;1.00;;;;;26.91;43.75;101060.53;5018716;28;51047;-62
2021/08/16 04:13:32;;;;;;;;;0.75;0.75;;;;;26.91;44.14;101068.88;5017942;28;51121;-62
2021/08/16 04:15:57;;;;;;;;;1.00;1.00;;;;;26.91;44.03;101068.88;5018503;28;50967;-62
2021/08/16 04:18:23;;;;;;;;;2.00;0.75;;;;;26.89;44.09;101074.69;5018216;28;51115;-62
2021/08/16 04:20:48;;;;;;;;;1.00;1.00;;;;;26.90;44.15;101072.75;5018499;28;50933;-61
2021/08/16 04:23:13;;;;;;;;;0.75;0.00;;;;;26.90;43.78;101069.97;5018157;28;51866;-61
2021/08/16 04:25:39;;;;;;;;;3.00;2.00;;;;;26.90;44.03;101069.97;5018192;28;50879;-61
2021/08/16 04:28:04;;;;;;;;;0.25;0.25;;;;;26.89;44.30;101071.91;5036282;28;50958;-61
2021/08/16 04:30:30;;;;;;;;;1.75;1.75;;;;;26.89;44.21;101068.31;5038480;28;51158;-61
2021/08/16 04:32:55;;;;;;;;;0.00;0.00;;;;;26.88;43.66;101070.22;5037971;28;51808;-61
2021/08/16 04:35:21;;;;;;;;;1.25;1.00;;;;;26.88;44.17;101064.66;5038227;28;50991;-61
2021/08/16 04:37:47;;;;;;;;;1.75;1.75;;;;;26.88;44.16;101080.50;5037923;28;51109;-61
2021/08/16 04:40:13;;;;;;;;;1.75;0.75;;;;;26.88;44.12;101069.38;5038324;28;50966;-61
2021/08/16 04:42:38;;;;;;;;;1.00;1.00;;;;;26.88;43.83;101073.00;5037635;28;51965;-61
2021/08/16 04:45:06;;;;;;;;;0.75;0.75;;;;;26.88;43.71;101074.94;5038007;28;51256;-61
2021/08/16 04:47:32;;;;;;;;;1.00;1.00;;;;;26.87;44.05;101074.09;5037999;28;51141;-62
2021/08/16 04:49:57;;;;;;;;;1.50;1.00;;;;;26.86;44.15;101077.13;5038008;28;51021;-61
2021/08/16 04:52:23;;;;;;;;;2.00;1.00;;;;;26.87;44.41;101073.25;5037543;28;51777;-62
2021/08/16 04:54:49;;;;;;;;;0.00;0.00;;;;;26.87;44.21;101081.59;5036375;28;51282;-62
2021/08/16 04:57:14;;;;;;;;;0.75;0.75;;;;;26.85;44.08;101073.53;5037052;28;51064;-61
2021/08/16 04:59:39;;;;;;;;;1.00;1.00;;;;;26.85;44.07;101072.69;5036452;28;51033;-62
2021/08/16 05:02:05;;;;;;;;;1.00;1.00;;;;;26.86;43.83;101077.97;5037260;28;50939;-62
2021/08/16 05:04:30;;;;;;;;;1.00;1.00;;;;;26.85;43.46;101081.84;5037335;28;51165;-63
2021/08/16 05:06:55;;;;;;;;;0.75;0.75;;;;;26.85;43.48;101081.84;5037798;28;51049;-62
2021/08/16 05:09:21;;;;;;;;;1.75;1.25;;;;;26.85;44.14;101078.25;5036571;28;51025;-62
2021/08/16 05:11:46;;;;;;;;;1.50;0.00;;;;;26.84;44.02;101088.53;5036838;28;50943;-62
2021/08/16 05:14:11;;;;;;;;;1.75;1.00;;;;;26.84;43.80;101088.53;5037821;28;51335;-62
2021/08/16 05:16:37;;;;;;;;;1.25;1.00;;;;;26.84;44.21;101091.31;5037489;28;51124;-62
2021/08/16 05:19:02;;;;;;;;;0.00;0.00;;;;;26.84;43.65;101090.47;5037023;28;51732;-62
2021/08/16 05:21:30;;;;;;;;;1.00;1.00;;;;;26.83;43.68;101089.63;5036967;28;51072;-62
2021/08/16 05:23:56;;;;;;;;;1.75;1.50;;;;;26.83;43.57;101088.78;5037122;28;51061;-61
2021/08/16 05:26:21;;;;;;;;;1.75;1.00;;;;;26.83;43.72;101088.78;5037042;28;51208;-61
2021/08/16 05:28:46;;;;;;;;;2.00;1.00;;;;;26.84;43.75;101093.25;5035579;28;51071;-62
2021/08/16 05:31:12;;;;;;;;;1.00;1.00;;;;;26.82;43.71;101103.78;5036799;28;52380;-61
2021/08/16 05:33:37;;;;;;;;;0.00;0.00;;;;;26.82;43.61;101109.34;5036995;28;51046;-62
2021/08/16 05:36:03;;;;;;;;;1.00;1.00;;;;;26.82;43.49;101101.84;5036921;28;50988;-61
2021/08/16 05:38:28;;;;;;;;;0.00;0.00;;;;;26.82;44.08;101110.19;5037058;28;51340;-61
2021/08/16 05:40:53;;;;;;;;;1.00;0.75;;;;;26.82;43.66;101118.50;5036771;28;51773;-61
2021/08/16 05:43:19;;;;;;;;;1.00;1.00;;;;;26.81;43.52;101113.22;5036805;28;50952;-61
2021/08/16 05:45:44;;;;;;;;;1.00;1.00;;;;;26.81;43.91;101118.78;5036891;28;51133;-61
2021/08/16 05:48:10;;;;;;;;;1.00;1.00;;;;;26.80;43.99;101123.50;5036759;28;51203;-61
2021/08/16 05:50:35;;;;;;;;;1.25;1.00;;;;;26.80;43.62;101120.72;5036695;28;51099;-61
2021/08/16 05:53:00;;;;;;;;;0.50;0.50;;;;;26.81;44.01;101119.63;5036833;28;51092;-61
2021/08/16 05:55:26;;;;;;;;;1.00;0.50;;;;;26.80;43.63;101117.94;5036675;28;50978;-61
2021/08/16 05:57:51;;;;;;;;;1.00;1.00;;;;;26.81;43.47;101116.00;5036478;28;51144;-61
2021/08/16 06:00:18;;;;;;;;;1.25;1.00;;;;;26.79;43.90;101118.22;5036365;28;51095;-62
2021/08/16 06:02:44;;;;;;;;;0.00;0.00;;;;;26.79;43.76;101124.59;5036410;28;51359;-62
2021/08/16 06:05:10;;;;;;;;;1.00;1.00;;;;;26.79;43.70;101127.38;5036381;28;51194;-62
2021/08/16 06:07:35;;;;;;;;;0.00;0.00;;;;;26.79;43.40;101130.16;5036023;28;51191;-62
2021/08/16 06:10:00;;;;;;;;;0.50;0.50;;;;;26.79;43.88;101127.38;5036333;28;51713;-62
2021/08/16 06:12:26;;;;;;;;;0.25;0.25;;;;;26.79;43.92;101132.09;5036004;28;51054;-62
2021/08/16 06:14:51;;;;;;;;;0.25;0.25;;;;;26.78;44.17;101128.44;5036777;28;51087;-62
2021/08/16 06:17:17;;;;;;;;;0.50;0.50;;;;;26.79;43.54;101132.09;5052012;28;51033;-62
2021/08/16 06:19:42;;;;;;;;;2.00;0.25;;;;;26.77;43.48;101135.09;5035630;28;52054;-62
2021/08/16 06:22:08;;;;;;;;;1.00;1.00;;;;;26.78;44.11;101131.22;5036094;28;50935;-61
2021/08/16 06:24:34;;;;;;;;;0.00;0.00;;;;;26.78;43.45;101136.78;5036166;28;50979;-62
2021/08/16 06:27:00;;;;;;;;;1.25;1.00;;;;;26.77;43.76;101144.28;5036159;28;50992;-62
2021/08/16 06:29:25;;;;;;;;;0.00;0.00;;;;;26.77;43.60;101140.66;5035721;28;51039;-62
2021/08/16 06:31:50;;;;;;;;;0.50;0.50;;;;;26.77;43.99;101140.66;5036324;28;50963;-62
2021/08/16 06:34:16;;;;;;;;;0.00;0.00;;;;;26.77;43.71;101129.56;5034924;28;51530;-62
2021/08/16 06:36:43;;;;;;;;;0.75;0.75;;;;;26.77;44.05;101133.16;5036278;28;51191;-62
2021/08/16 06:39:21;;;;;;;;;0.50;0.50;;;;;26.76;44.08;101139.84;5035904;28;51980;-62
2021/08/16 06:41:48;;;;;;;;;0.25;0.25;;;;;26.77;44.07;101151.78;5035889;28;51225;-62
2021/08/16 06:44:16;;;;;;;;;0.75;0.00;;;;;26.77;44.03;101157.34;5036020;28;51010;-62
2021/08/16 06:46:42;;;;;;;;;1.00;0.25;;;;;26.76;43.52;101166.78;5036324;28;51281;-61
2021/08/16 06:49:07;;;;;;;;;1.00;0.00;;;;;26.76;43.41;101164.00;5035529;28;51039;-62
2021/08/16 06:51:32;;;;;;;;;0.00;0.00;;;;;26.76;43.58;101158.44;5035734;28;51116;-62
2021/08/16 06:53:58;;;;;;;;;2.00;0.75;;;;;26.76;43.57;101164.84;5035817;28;51038;-61
2021/08/16 06:56:23;;;;;;;;;0.75;0.00;;;;;26.75;43.44;101162.31;5035768;28;51275;-61
2021/08/16 06:58:49;;;;;;;;;0.00;0.00;;;;;26.75;43.54;101156.75;5035274;28;51060;-62
2021/08/16 07:01:22;;;;;;;;;1.00;1.00;;;;;26.74;43.73;101150.38;5035774;28;51081;-62
2021/08/16 07:03:47;;;;;;;;;1.00;1.00;;;;;26.75;43.65;101159.53;5015681;28;51028;-62
2021/08/16 07:06:13;;;;;;;;;0.00;0.00;;;;;26.74;43.92;101160.66;5016071;28;51251;-62
2021/08/16 07:08:39;;;;;;;;;0.00;0.00;;;;;26.75;44.00;101167.88;5014207;28;51774;-61
2021/08/16 07:11:04;;;;;;;;;0.00;0.00;;;;;26.75;43.47;101168.72;5015700;28;51132;-62
2021/08/16 07:13:30;;;;;;;;;0.75;0.00;;;;;26.74;43.93;101160.66;5013715;28;51730;-62
2021/08/16 07:15:56;;;;;;;;;0.00;0.00;;;;;26.73;43.39;101170.09;5016042;28;51364;-62
2021/08/16 07:18:21;;;;;;;;;0.00;0.00;;;;;26.73;43.52;101172.88;4997845;28;52040;-62
2021/08/16 07:20:47;;;;;;;;;0.50;0.50;;;;;26.73;43.43;101176.47;5019015;28;51275;-62
2021/08/16 07:23:12;;;;;;;;;0.50;0.50;;;;;26.73;43.48;101168.16;5019360;28;51039;-62
2021/08/16 07:25:38;;;;;;;;;2.00;0.00;;;;;26.73;43.75;101176.47;5019327;28;51144;-62
2021/08/16 07:28:03;;;;;;;;;0.00;0.00;;;;;26.73;43.82;101179.25;5036885;28;52135;-62
2021/08/16 07:30:29;;;;;;;;;0.00;0.00;;;;;26.73;43.71;101175.63;5039190;28;51088;-62
2021/08/16 07:32:54;;;;;;;;;0.00;0.00;;;;;26.73;43.81;101173.69;5039112;28;50942;-61
2021/08/16 07:35:21;;;;;;;;;1.00;1.00;;;;;26.72;43.68;101176.75;5037853;28;51285;-62
2021/08/16 07:37:46;;;;;;;;;0.00;0.00;;;;;26.73;43.37;101179.25;5037051;28;51175;-61
2021/08/16 07:40:12;;;;;;;;;1.00;0.00;;;;;26.73;43.70;101175.63;5039066;28;51261;-61
2021/08/16 07:42:40;;;;;;;;;0.00;0.00;;;;;26.72;43.95;101176.75;5038378;28;51034;-61
2021/08/16 07:45:07;;;;;;;;;0.00;0.00;;;;;26.72;43.45;101185.91;5038810;28;51360;-61
2021/08/16 07:47:32;;;;;;;;;0.00;0.00;;;;;26.73;44.11;101190.38;5038389;28;51076;-61
2021/08/16 07:49:57;;;;;;;;;0.50;0.00;;;;;26.73;43.86;101186.75;5038139;28;51199;-61
2021/08/16 07:52:23;;;;;;;;;2.00;0.25;;;;;26.72;44.00;101187.84;5038539;28;51280;-61
2021/08/16 07:54:48;;;;;;;;;0.00;0.00;;;;;26.72;43.75;101191.47;5038720;28;51340;-62
2021/08/16 07:57:13;;;;;;;;;1.00;1.00;;;;;26.71;43.59;101187.03;5037802;28;51014;-61
2021/08/16 07:59:39;;;;;;;;;0.00;0.00;;;;;26.72;43.74;101187.84;5038144;28;52667;-61
2021/08/16 08:02:04;;;;;;;;;0.00;0.00;;;;;26.72;43.59;101185.06;5038316;28;51203;-61
2021/08/16 08:04:30;;;;;;;;;1.00;1.00;;;;;26.72;43.59;101187.84;5038415;28;50968;-61
2021/08/16 08:06:55;;;;;;;;;0.50;0.00;;;;;26.73;43.42;101189.53;5038151;28;51205;-61
2021/08/16 08:09:21;;;;;;;;;0.00;0.00;;;;;26.72;43.88;101194.25;5037794;28;50975;-62
2021/08/16 08:11:46;;;;;;;;;2.00;0.00;;;;;26.71;43.97;101187.03;5037864;28;50974;-60
2021/08/16 08:14:12;;;;;;;;;0.00;0.00;;;;;26.71;44.18;101189.78;5038492;28;51107;-60
2021/08/16 08:16:37;;;;;;;;;0.25;0.00;;;;;26.71;43.75;101191.75;5037947;28;51030;-60
2021/08/16 08:19:02;;;;;;;;;0.00;0.00;;;;;26.70;43.97;101185.34;5037905;28;51484;-60
2021/08/16 08:21:28;;;;;;;;;1.00;0.00;;;;;26.70;44.05;101188.13;5038068;28;51066;-62
2021/08/16 08:23:53;;;;;;;;;1.00;0.75;;;;;26.70;43.96;101190.91;5038296;28;51523;-63
2021/08/16 08:26:18;;;;;;;;;0.00;0.00;;;;;26.70;43.92;101199.22;5036264;28;52308;-62
2021/08/16 08:28:44;;;;;;;;;0.50;0.50;;;;;26.70;43.48;101204.78;5037280;28;55888;-62
2021/08/16 08:31:09;;;;;;;;;0.00;0.00;;;;;26.71;43.53;101202.84;5037449;28;51031;-63
2021/08/16 08:33:37;;;;;;;;;0.00;0.00;;;;;26.71;43.96;101212.03;5038317;28;50999;-63
2021/08/16 08:36:02;;;;;;;;;0.00;0.00;;;;;26.71;43.89;101208.41;5037709;28;51046;-63
2021/08/16 08:38:28;;;;;;;;;0.00;0.00;;;;;26.70;43.83;101207.56;5037735;28;51129;-62
2021/08/16 08:40:58;;;;;;;;;1.00;0.25;;;;;26.71;43.80;101208.41;5037437;28;56496;-62
2021/08/16 08:43:24;;;;;;;;;0.00;0.00;;;;;26.71;43.92;101213.97;5037767;28;51177;-62
2021/08/16 08:45:54;;;;;;;;;0.00;0.00;;;;;26.70;43.61;101207.56;5037569;28;51903;-62
2021/08/16 08:48:20;;;;;;;;;0.00;0.00;;;;;26.70;43.97;101202.00;5037447;28;50990;-62
2021/08/16 08:50:46;;;;;;;;;1.00;1.00;;;;;26.70;43.88;101217.84;5037612;28;50962;-62
2021/08/16 08:53:11;;;;;;;;;0.75;0.00;;;;;26.69;43.82;101217.00;5037899;28;51150;-62
2021/08/16 08:55:37;;;;;;;;;0.00;0.00;;;;;26.69;43.59;101218.94;5037336;28;51996;-62
2021/08/16 08:58:02;;;;;;;;;1.50;0.75;;;;;26.69;43.75;101219.78;5037138;28;50936;-62
2021/08/16 09:00:28;;;;;;;;;0.00;0.00;;;;;26.70;43.79;101227.03;5037534;28;51018;-63
2021/08/16 09:03:00;;;;;;;;;0.25;0.25;;;;;26.71;44.15;101225.09;5037240;28;51298;-63
2021/08/16 09:05:26;;;;;;;;;0.00;0.00;;;;;26.71;43.44;101222.31;5037312;28;51025;-62
2021/08/16 09:07:55;;;;;;;;;1.00;0.00;;;;;26.69;43.56;101230.06;5037142;28;51008;-62
2021/08/16 09:10:22;;;;;;;;;0.75;0.75;;;;;26.69;44.12;101225.34;5037288;28;51004;-63
2021/08/16 09:12:48;;;;;;;;;0.00;0.00;;;;;26.70;43.66;101234.53;5037291;28;51133;-63
2021/08/16 09:15:21;;;;;;;;;0.00;0.00;;;;;26.70;43.90;101234.53;5037040;28;51907;-62
2021/08/16 09:17:46;;;;;;;;;0.25;0.00;;;;;26.70;43.84;101237.28;5036885;28;51418;-62
2021/08/16 09:20:17;;;;;;;;;1.00;1.00;;;;;26.70;43.72;101235.34;5037092;28;51430;-62
2021/08/16 09:23:01;;;;;;;;;0.25;0.25;;;;;26.69;43.55;101239.25;5037316;28;51015;-62
2021/08/16 09:25:31;;;;;;;;;1.00;1.00;;;;;26.70;44.02;101234.53;5036716;28;50908;-62
2021/08/16 09:27:57;;;;;;;;;0.50;0.00;;;;;26.70;43.95;101242.84;5036377;28;51056;-62
2021/08/16 09:30:38;;;;;;;;;0.25;0.25;;;;;26.69;44.08;101249.50;5036108;28;50987;-63
2021/08/16 09:33:10;;;;;;;;;1.75;0.00;;;;;26.69;43.48;101252.28;5036040;28;51034;-62
2021/08/16 09:35:48;;;;;;;;;0.00;0.00;;;;;26.69;43.75;101244.78;5036892;28;50959;-62
2021/08/16 09:38:13;;;;;;;;;0.00;0.00;;;;;26.69;43.90;101255.91;5036699;28;51227;-62
2021/08/16 09:40:38;;;;;;;;;0.00;0.00;;;;;26.69;44.17;101255.06;5036836;28;51071;-62
2021/08/16 09:43:04;;;;;;;;;2.67;1.00;;;;;26.70;43.72;101256.75;5035466;28;51066;-62
2021/08/16 09:45:34;;;;;;;;;0.00;0.00;;;;;26.71;44.20;101264.00;5036573;28;51033;-62
2021/08/16 09:48:01;;;;;;;;;0.75;0.00;;;;;26.71;44.19;101264.00;5036360;28;51234;-62
2021/08/16 09:50:38;;;;;;;;;1.00;1.00;;;;;26.71;44.26;101264.00;5036582;28;51142;-62
2021/08/16 09:53:10;;;;;;;;;1.00;1.00;;;;;26.72;44.28;101260.94;5036744;28;51300;-63
2021/08/16 09:55:39;;;;;;;;;1.00;1.00;;;;;26.72;43.74;101266.50;5036404;28;51919;-62
2021/08/16 09:58:07;;;;;;;;;0.00;0.00;;;;;26.73;43.68;101259.00;5036073;28;51084;-62
2021/08/16 10:00:34;;;;;;;;;1.00;0.00;;;;;26.73;43.84;101265.41;5036794;28;51306;-62
2021/08/16 10:03:08;;;;;;;;;1.00;1.00;;;;;26.73;44.04;101259.00;5129110;27;1316383;-44
2021/08/16 10:05:39;;;;;;;;;0.00;0.00;;;;;26.75;43.68;101262.38;5156505;27;50840;-44
2021/08/16 10:08:07;;;;;;;;;1.00;0.00;;;;;26.73;43.95;101261.78;5156916;27;50968;-43
2021/08/16 10:10:35;;;;;;;;;1.00;1.00;;;;;26.76;43.70;101255.72;5136582;27;51225;-42
2021/08/16 10:13:02;;;;;;;;;0.25;0.25;;;;;26.77;43.89;101262.94;5135275;27;51122;-45
2021/08/16 10:15:29;;;;;;;;;0.00;0.00;;;;;26.79;43.56;101268.28;5135673;27;51082;-46
2021/08/16 10:17:54;;;;;;;;;0.75;0.75;;;;;26.76;43.53;101273.22;5135630;27;51250;-45
2021/08/16 10:20:20;;;;;;;;;0.00;0.00;;;;;26.76;43.53;101267.66;5135347;27;51066;-46
2021/08/16 10:22:46;;;;;;;;;1.00;1.00;;;;;26.76;44.15;101281.56;5135554;27;51276;-44
2021/08/16 10:25:18;;;;;;;;;0.00;0.00;;;;;26.76;43.76;101286.28;5135457;27;51279;-47
2021/08/16 10:27:45;;;;;;;;;0.00;0.00;;;;;26.76;43.72;101289.06;5118837;27;50936;-46
2021/08/16 10:30:15;;;;;;;;;1.00;1.00;;;;;26.77;43.74;101290.75;5114382;27;51692;-45
2021/08/16 10:32:40;;;;;;;;;0.00;0.00;;;;;26.76;44.21;101291.84;5114528;27;51316;-45
2021/08/16 10:35:13;;;;;;;;;1.00;1.00;;;;;26.76;43.77;101291.84;5114186;27;51022;-44
2021/08/16 10:37:41;;;;;;;;;2.75;1.00;;;;;26.77;43.78;101297.16;5114347;27;51271;-42
2021/08/16 10:40:22;;;;;;;;;0.00;0.00;;;;;26.77;44.08;101291.59;5113777;27;50994;-44
2021/08/16 10:42:48;;;;;;;;;1.00;1.00;;;;;26.78;43.58;101303.53;5114001;27;51118;-43
2021/08/16 10:45:27;;;;;;;;;1.00;1.00;;;;;26.79;43.74;101312.75;5114156;27;50918;-44
2021/08/16 10:48:03;;;;;;;;;0.75;0.75;;;;;26.77;44.27;101297.16;5114077;27;51034;-44
2021/08/16 10:50:29;;;;;;;;;1.00;0.75;;;;;26.77;43.93;101305.47;5113568;27;51178;-45
2021/08/16 10:53:08;;;;;;;;;0.00;0.00;;;;;26.79;44.19;101307.19;5114259;27;51126;-44
2021/08/16 10:55:39;;;;;;;;;0.75;0.75;;;;;26.78;44.00;101311.88;5114219;27;50959;-46
2021/08/16 10:58:09;;;;;;;;;1.50;1.00;;;;;26.78;43.67;101309.09;5114161;27;51001;-42
2021/08/16 11:00:35;;;;;;;;;0.00;0.00;;;;;26.77;43.78;101316.59;5095484;27;53845;-45
2021/08/16 11:03:01;;;;;;;;;0.00;0.00;;;;;26.79;43.92;101315.53;5119629;27;50970;-42
2021/08/16 11:05:32;;;;;;;;;1.25;1.25;;;;;26.77;43.83;101321.31;5134865;27;51461;-45
2021/08/16 11:08:02;;;;;;;;;1.00;1.00;;;;;26.77;44.29;101338.84;5134688;27;50904;-43
2021/08/16 11:10:45;;;;;;;;;1.00;1.00;;;;;26.77;44.09;101336.06;5116710;27;51718;-47
2021/08/16 11:13:18;;;;;;;;;2.00;1.00;;;;;26.78;44.27;101336.91;5127756;27;50922;-43
2021/08/16 11:15:44;;;;;;;;;1.00;0.50;;;;;26.77;44.20;101351.88;5120675;27;51044;-44
2021/08/16 11:18:18;;;;;;;;;1.00;1.00;;;;;26.79;44.39;101354.44;5102396;27;51074;-46
2021/08/16 11:20:46;;;;;;;;;1.75;1.75;;;;;26.77;44.25;101349.94;5120122;27;51981;-43